Time;durP1;ratioP1;P1;durP2;ratioP2;P2;SDS_P1;SDS_P2;PMS_P1;PMS_P2;Temp;Humidity;BMP_temperature;BMP_pressure;BME280_temperature;BME280_humidity;BME280_pressure;Samples;Min_cycle;Max_cycle;Signal;HPM_P1;HPM_P2
2021/03/02 00:00:57;;;;;;;48.55;24.88;;;;;;;;;;4991316;28;20852;-67
2021/03/02 00:03:22;;;;;;;47.65;24.38;;;;;;;;;;4987171;28;20023;-65
2021/03/02 00:05:48;;;;;;;45.80;24.48;;;;;;;;;;5007087;28;20033;-65
2021/03/02 00:08:13;;;;;;;49.97;24.60;;;;;;;;;;4995789;28;20038;-65
2021/03/02 00:10:42;;;;;;;48.70;24.42;;;;;;;;;;5007048;28;20026;-65
2021/03/02 00:13:08;;;;;;;47.72;23.08;;;;;;;;;;4990308;28;20062;-65
2021/03/02 00:15:33;;;;;;;48.28;24.38;;;;;;;;;;4993144;28;20049;-66
2021/03/02 00:18:00;;;;;;;48.55;23.65;;;;;;;;;;4994302;28;20014;-65
2021/03/02 00:20:25;;;;;;;57.15;26.20;;;;;;;;;;4994500;28;20053;-66
2021/03/02 00:23:09;;;;;;;51.05;26.00;;;;;;;;;;4993378;28;20061;-66
2021/03/02 00:25:36;;;;;;;53.13;24.58;;;;;;;;;;4993020;28;20471;-65
2021/03/02 00:28:04;;;;;;;52.47;25.85;;;;;;;;;;4994323;28;20034;-65
2021/03/02 00:30:29;;;;;;;52.67;25.58;;;;;;;;;;4994798;28;20474;-65
2021/03/02 00:32:55;;;;;;;54.92;26.42;;;;;;;;;;4995117;28;20022;-65
2021/03/02 00:35:21;;;;;;;53.20;25.83;;;;;;;;;;4994616;28;20095;-65
2021/03/02 00:37:50;;;;;;;48.65;24.77;;;;;;;;;;4994383;28;20038;-65
2021/03/02 00:40:16;;;;;;;53.50;26.52;;;;;;;;;;4994574;28;20019;-65
2021/03/02 00:42:41;;;;;;;49.90;24.38;;;;;;;;;;4994570;28;20041;-65
2021/03/02 00:45:07;;;;;;;51.33;24.67;;;;;;;;;;4995624;28;20133;-65
2021/03/02 00:47:32;;;;;;;48.50;24.38;;;;;;;;;;4995649;28;20030;-65
2021/03/02 00:49:58;;;;;;;49.38;24.02;;;;;;;;;;4995561;28;20042;-66
2021/03/02 00:52:23;;;;;;;48.88;24.30;;;;;;;;;;4995487;28;20023;-65
2021/03/02 00:54:48;;;;;;;49.67;24.15;;;;;;;;;;4995222;28;20403;-65
2021/03/02 00:57:14;;;;;;;54.85;25.25;;;;;;;;;;4994880;28;20109;-65
2021/03/02 00:59:39;;;;;;;44.47;22.23;;;;;;;;;;4995261;28;20019;-66
2021/03/02 01:02:04;;;;;;;43.28;22.85;;;;;;;;;;4995198;28;20034;-65
2021/03/02 01:04:29;;;;;;;45.50;22.58;;;;;;;;;;4995121;28;20030;-66
2021/03/02 01:06:55;;;;;;;44.53;23.67;;;;;;;;;;4995365;28;20452;-65
2021/03/02 01:09:20;;;;;;;45.05;23.67;;;;;;;;;;4994459;28;20034;-67
2021/03/02 01:11:47;;;;;;;49.15;25.85;;;;;;;;;;4994012;28;20440;-65
2021/03/02 01:14:12;;;;;;;47.60;25.38;;;;;;;;;;4994838;28;20031;-65
2021/03/02 01:16:37;;;;;;;45.60;24.73;;;;;;;;;;4995111;28;20049;-65
2021/03/02 01:19:03;;;;;;;50.28;26.65;;;;;;;;;;4994902;28;20030;-65
2021/03/02 01:21:28;;;;;;;50.25;25.08;;;;;;;;;;4994739;28;20046;-65
2021/03/02 01:23:53;;;;;;;46.50;24.02;;;;;;;;;;4994950;28;20080;-65
2021/03/02 01:26:18;;;;;;;40.70;23.52;;;;;;;;;;4993607;28;20034;-65
2021/03/02 01:28:44;;;;;;;46.70;25.08;;;;;;;;;;4994967;28;20471;-65
2021/03/02 01:31:09;;;;;;;48.35;24.08;;;;;;;;;;4994673;28;20026;-65
2021/03/02 01:33:34;;;;;;;47.22;25.15;;;;;;;;;;4994613;28;20038;-65
2021/03/02 01:35:59;;;;;;;47.35;25.25;;;;;;;;;;4994647;28;20056;-65
2021/03/02 01:38:25;;;;;;;46.80;23.80;;;;;;;;;;4994816;28;20027;-65
2021/03/02 01:40:50;;;;;;;45.15;24.60;;;;;;;;;;4994627;28;20073;-66
2021/03/02 01:43:15;;;;;;;45.65;24.27;;;;;;;;;;4994231;28;20360;-65
2021/03/02 01:45:41;;;;;;;44.92;24.27;;;;;;;;;;4994528;28;20467;-65
2021/03/02 01:48:07;;;;;;;48.67;24.90;;;;;;;;;;4994532;28;20390;-66
2021/03/02 01:50:32;;;;;;;52.90;27.17;;;;;;;;;;4990873;28;20022;-68
2021/03/02 01:52:57;;;;;;;48.92;27.30;;;;;;;;;;4987072;28;20037;-65
2021/03/02 01:55:23;;;;;;;48.63;25.05;;;;;;;;;;4991880;28;20119;-65
2021/03/02 01:57:48;;;;;;;48.63;25.58;;;;;;;;;;4993540;28;20022;-65
2021/03/02 02:00:25;;;;;;;49.38;26.42;;;;;;;;;;4994141;28;20030;-65
2021/03/02 02:02:54;;;;;;;45.00;25.23;;;;;;;;;;4993807;28;20395;-66
2021/03/02 02:05:20;;;;;;;46.90;25.42;;;;;;;;;;4993767;28;20030;-65
2021/03/02 02:07:50;;;;;;;47.95;26.50;;;;;;;;;;4994211;28;20030;-65
2021/03/02 02:10:17;;;;;;;49.88;26.20;;;;;;;;;;4994047;28;20027;-65
2021/03/02 02:12:51;;;;;;;45.00;22.20;;;;;;;;;;4994219;28;20034;-65
2021/03/02 02:15:27;;;;;;;48.38;26.27;;;;;;;;;;4993816;28;20049;-65
2021/03/02 02:17:55;;;;;;;58.83;26.02;;;;;;;;;;4994126;28;20034;-66
2021/03/02 02:20:41;;;;;;;50.40;25.48;;;;;;;;;;4993831;28;20125;-65
2021/03/02 02:23:24;;;;;;;47.58;25.88;;;;;;;;;;4993022;28;20038;-65
2021/03/02 02:25:53;;;;;;;45.70;25.25;;;;;;;;;;4993806;28;20037;-65
2021/03/02 02:28:19;;;;;;;58.97;26.17;;;;;;;;;;4993600;28;20464;-65
2021/03/02 02:30:47;;;;;;;49.13;24.67;;;;;;;;;;4993792;28;20450;-66
2021/03/02 02:33:14;;;;;;;45.22;23.00;;;;;;;;;;4993782;28;20061;-65
2021/03/02 02:35:41;;;;;;;44.30;24.58;;;;;;;;;;4993422;28;20434;-65
2021/03/02 02:38:07;;;;;;;51.08;24.92;;;;;;;;;;4993552;28;20483;-65
2021/03/02 02:40:33;;;;;;;45.75;24.02;;;;;;;;;;4993488;28;20022;-65
2021/03/02 02:42:59;;;;;;;51.42;26.13;;;;;;;;;;4993680;28;20038;-65
2021/03/02 02:45:24;;;;;;;53.17;26.45;;;;;;;;;;4993142;28;20081;-66
2021/03/02 02:47:51;;;;;;;55.58;26.00;;;;;;;;;;4993435;28;20046;-65
2021/03/02 02:50:16;;;;;;;51.33;25.55;;;;;;;;;;4993252;28;20040;-65
2021/03/02 02:52:42;;;;;;;51.15;26.30;;;;;;;;;;4993481;28;20114;-65
2021/03/02 02:55:07;;;;;;;47.83;24.70;;;;;;;;;;4993386;28;20073;-65
2021/03/02 02:57:39;;;;;;;51.38;26.67;;;;;;;;;;4993771;28;20034;-65
2021/03/02 03:00:04;;;;;;;62.00;28.58;;;;;;;;;;4993509;28;20038;-66
2021/03/02 03:02:31;;;;;;;56.42;28.13;;;;;;;;;;4993651;28;20026;-65
2021/03/02 03:05:16;;;;;;;53.30;26.20;;;;;;;;;;4993241;28;20038;-65
2021/03/02 03:08:02;;;;;;;52.15;26.42;;;;;;;;;;4993174;28;20050;-65
2021/03/02 03:10:29;;;;;;;55.80;23.58;;;;;;;;;;4992910;28;20042;-66
2021/03/02 03:12:57;;;;;;;56.15;25.92;;;;;;;;;;4993642;28;20041;-67
2021/03/02 03:15:23;;;;;;;56.88;27.50;;;;;;;;;;4993103;28;20472;-65
2021/03/02 03:17:56;;;;;;;49.13;24.15;;;;;;;;;;4993564;28;20041;-65
2021/03/02 03:20:22;;;;;;;54.22;24.15;;;;;;;;;;4993364;28;20030;-65
2021/03/02 03:22:48;;;;;;;57.38;28.92;;;;;;;;;;4993742;28;20018;-66
2021/03/02 03:25:14;;;;;;;54.88;28.40;;;;;;;;;;4993264;28;20023;-65
2021/03/02 03:27:48;;;;;;;58.78;28.70;;;;;;;;;;4993689;28;20031;-65
2021/03/02 03:30:14;;;;;;;56.42;24.88;;;;;;;;;;4993183;28;20022;-65
2021/03/02 03:32:42;;;;;;;50.05;25.13;;;;;;;;;;4993380;28;20034;-65
2021/03/02 03:35:08;;;;;;;54.20;25.88;;;;;;;;;;4994420;28;20511;-65
2021/03/02 03:37:33;;;;;;;57.38;26.90;;;;;;;;;;4997134;28;20025;-65
2021/03/02 03:39:59;;;;;;;57.35;26.60;;;;;;;;;;4997048;28;20132;-66
2021/03/02 03:42:24;;;;;;;57.75;26.92;;;;;;;;;;4996819;28;20070;-65
2021/03/02 03:44:49;;;;;;;56.83;27.20;;;;;;;;;;4996426;28;20054;-65
2021/03/02 03:47:15;;;;;;;53.22;25.80;;;;;;;;;;4996529;28;20442;-65
2021/03/02 03:49:40;;;;;;;59.90;27.77;;;;;;;;;;4996681;28;20045;-66
2021/03/02 03:52:08;;;;;;;60.03;27.45;;;;;;;;;;4996793;28;20026;-65
2021/03/02 03:54:34;;;;;;;52.95;25.67;;;;;;;;;;4996504;28;20038;-65
2021/03/02 03:57:00;;;;;;;59.17;28.52;;;;;;;;;;4996414;28;20070;-66
2021/03/02 03:59:25;;;;;;;57.83;26.75;;;;;;;;;;4996789;28;20443;-65
2021/03/02 04:01:51;;;;;;;58.92;27.98;;;;;;;;;;4996397;28;20034;-66
2021/03/02 04:04:17;;;;;;;55.17;27.08;;;;;;;;;;4996404;28;20452;-65
2021/03/02 04:06:43;;;;;;;59.08;28.00;;;;;;;;;;4996031;28;20022;-65
2021/03/02 04:09:09;;;;;;;60.25;28.77;;;;;;;;;;4995158;28;20034;-65
2021/03/02 04:11:35;;;;;;;58.67;27.92;;;;;;;;;;4996258;28;20456;-65
2021/03/02 04:14:00;;;;;;;63.67;28.23;;;;;;;;;;4996627;28;20031;-65
2021/03/02 04:16:25;;;;;;;62.97;28.33;;;;;;;;;;4996204;28;20034;-65
2021/03/02 04:18:50;;;;;;;63.50;28.55;;;;;;;;;;4995927;28;20021;-66
2021/03/02 04:21:17;;;;;;;64.22;29.42;;;;;;;;;;4996048;28;20037;-65
2021/03/02 04:23:42;;;;;;;59.75;29.15;;;;;;;;;;4996183;28;20034;-66
2021/03/02 04:26:07;;;;;;;58.90;28.98;;;;;;;;;;4996274;28;20014;-65
2021/03/02 04:28:33;;;;;;;63.90;28.48;;;;;;;;;;4996168;28;20026;-65
2021/03/02 04:30:58;;;;;;;57.17;28.42;;;;;;;;;;4995817;28;20118;-66
2021/03/02 04:33:23;;;;;;;62.10;28.38;;;;;;;;;;4995904;28;20026;-65
2021/03/02 04:35:48;;;;;;;64.80;28.85;;;;;;;;;;4994599;28;20410;-65
2021/03/02 04:38:14;;;;;;;57.30;27.33;;;;;;;;;;4995866;28;20467;-66
2021/03/02 04:40:39;;;;;;;63.45;28.20;;;;;;;;;;4996016;28;20026;-65
2021/03/02 04:43:04;;;;;;;63.50;28.77;;;;;;;;;;4995968;28;20053;-65
2021/03/02 04:45:30;;;;;;;63.53;29.02;;;;;;;;;;4995553;28;20096;-65
2021/03/02 04:47:55;;;;;;;61.13;27.25;;;;;;;;;;4995778;28;20205;-65
2021/03/02 04:50:20;;;;;;;62.95;27.52;;;;;;;;;;4995528;28;20379;-65
2021/03/02 04:52:46;;;;;;;66.80;29.30;;;;;;;;;;4995658;28;20038;-65
2021/03/02 04:55:11;;;;;;;65.53;28.25;;;;;;;;;;4987289;28;20022;-65
2021/03/02 04:57:36;;;;;;;64.10;26.17;;;;;;;;;;4993296;28;20049;-65
2021/03/02 05:00:03;;;;;;;60.75;28.10;;;;;;;;;;4993356;28;20129;-65
2021/03/02 05:02:29;;;;;;;61.10;28.48;;;;;;;;;;4995158;28;20041;-65
2021/03/02 05:04:54;;;;;;;55.63;24.58;;;;;;;;;;4995209;28;20014;-65
2021/03/02 05:07:19;;;;;;;61.53;29.00;;;;;;;;;;4994918;28;20077;-65
2021/03/02 05:09:45;;;;;;;64.80;29.25;;;;;;;;;;4995437;28;20033;-65
2021/03/02 05:12:10;;;;;;;66.65;29.75;;;;;;;;;;4995110;28;20018;-65
2021/03/02 05:14:35;;;;;;;65.45;30.30;;;;;;;;;;4995184;28;20046;-65
2021/03/02 05:17:01;;;;;;;63.85;27.85;;;;;;;;;;4994962;28;20018;-65
2021/03/02 05:19:26;;;;;;;68.35;29.17;;;;;;;;;;4994428;28;20029;-65
2021/03/02 05:21:51;;;;;;;66.05;28.85;;;;;;;;;;4994974;28;20542;-65
2021/03/02 05:24:16;;;;;;;63.13;28.10;;;;;;;;;;4994984;28;20030;-65
2021/03/02 05:26:42;;;;;;;68.60;29.98;;;;;;;;;;4994914;28;20014;-65
2021/03/02 05:29:07;;;;;;;67.68;30.85;;;;;;;;;;4994518;28;20038;-65
2021/03/02 05:31:32;;;;;;;69.85;30.60;;;;;;;;;;4994652;28;20021;-65
2021/03/02 05:33:58;;;;;;;66.00;29.98;;;;;;;;;;4994986;28;20068;-66
2021/03/02 05:36:23;;;;;;;76.07;32.25;;;;;;;;;;4994606;28;20041;-65
2021/03/02 05:38:48;;;;;;;73.10;31.58;;;;;;;;;;4994818;28;20100;-65
2021/03/02 05:41:13;;;;;;;76.20;30.55;;;;;;;;;;4994861;28;20022;-65
2021/03/02 05:43:42;;;;;;;76.28;30.65;;;;;;;;;;4994345;28;20058;-65
2021/03/02 05:46:08;;;;;;;74.75;31.05;;;;;;;;;;4994435;28;20056;-65
2021/03/02 05:48:34;;;;;;;69.22;30.20;;;;;;;;;;4994648;28;20452;-65
2021/03/02 05:50:59;;;;;;;72.05;31.02;;;;;;;;;;4994448;28;20451;-66
2021/03/02 05:53:25;;;;;;;63.38;26.13;;;;;;;;;;4994426;28;20031;-65
2021/03/02 05:55:50;;;;;;;79.13;30.88;;;;;;;;;;4994326;28;20518;-65
2021/03/02 05:58:16;;;;;;;70.28;31.33;;;;;;;;;;4993933;28;20014;-65
2021/03/02 06:00:41;;;;;;;73.35;32.17;;;;;;;;;;4994307;28;20030;-65
2021/03/02 06:03:07;;;;;;;80.93;34.92;;;;;;;;;;4994209;28;20015;-65
2021/03/02 06:05:33;;;;;;;75.22;32.92;;;;;;;;;;4994294;28;20015;-65
2021/03/02 06:07:58;;;;;;;75.63;32.25;;;;;;;;;;4994006;28;20046;-66
2021/03/02 06:10:30;;;;;;;73.60;30.58;;;;;;;;;;4994127;28;20106;-65
2021/03/02 06:12:57;;;;;;;76.20;32.20;;;;;;;;;;4994485;28;20018;-64
2021/03/02 06:15:23;;;;;;;75.10;28.33;;;;;;;;;;4993922;28;20089;-65
2021/03/02 06:18:06;;;;;;;75.90;33.65;;;;;;;;;;4994122;28;20050;-65
2021/03/02 06:20:31;;;;;;;82.50;34.00;;;;;;;;;;4993970;28;20034;-65
2021/03/02 06:22:57;;;;;;;82.75;33.95;;;;;;;;;;4993983;28;20038;-65
2021/03/02 06:25:30;;;;;;;70.72;30.10;;;;;;;;;;4993892;28;20091;-65
2021/03/02 06:27:56;;;;;;;82.72;33.33;;;;;;;;;;4993952;28;20038;-65
2021/03/02 06:30:21;;;;;;;78.60;33.85;;;;;;;;;;4993765;28;20394;-65
2021/03/02 06:32:48;;;;;;;80.60;35.03;;;;;;;;;;4993861;28;20026;-65
2021/03/02 06:35:32;;;;;;;80.97;33.80;;;;;;;;;;4993621;28;20057;-65
2021/03/02 06:37:57;;;;;;;85.28;33.28;;;;;;;;;;4993784;28;20030;-65
2021/03/02 06:40:42;;;;;;;79.82;33.42;;;;;;;;;;4993407;28;20042;-65
2021/03/02 06:43:07;;;;;;;82.43;32.60;;;;;;;;;;4993722;28;20030;-65
2021/03/02 06:45:33;;;;;;;84.53;33.70;;;;;;;;;;4993777;28;20487;-65
2021/03/02 06:48:02;;;;;;;78.72;33.10;;;;;;;;;;4993824;28;20113;-65
2021/03/02 06:50:27;;;;;;;69.78;30.35;;;;;;;;;;4993684;28;20019;-65
2021/03/02 06:52:53;;;;;;;78.38;32.75;;;;;;;;;;4993769;28;20042;-65
2021/03/02 06:55:18;;;;;;;74.15;28.58;;;;;;;;;;4993440;28;20043;-65
2021/03/02 06:57:45;;;;;;;74.25;31.17;;;;;;;;;;4993364;28;20030;-66
2021/03/02 07:00:10;;;;;;;79.65;33.33;;;;;;;;;;4993484;28;20034;-65
2021/03/02 07:02:37;;;;;;;83.55;33.03;;;;;;;;;;4993643;28;20038;-65
2021/03/02 07:05:06;;;;;;;74.15;32.17;;;;;;;;;;4993632;28;20028;-65
2021/03/02 07:07:32;;;;;;;81.18;34.67;;;;;;;;;;4993565;28;20061;-65
2021/03/02 07:10:00;;;;;;;77.63;33.20;;;;;;;;;;4994764;28;20127;-65
2021/03/02 07:12:28;;;;;;;81.63;35.40;;;;;;;;;;4997352;28;20036;-65
2021/03/02 07:14:53;;;;;;;88.43;35.28;;;;;;;;;;4997405;28;20152;-66
2021/03/02 07:17:18;;;;;;;78.22;33.70;;;;;;;;;;4994951;28;20880;-65
2021/03/02 07:19:44;;;;;;;83.85;33.35;;;;;;;;;;4987099;28;20015;-65
2021/03/02 07:22:10;;;;;;;83.95;34.60;;;;;;;;;;4977661;28;20493;-65
2021/03/02 07:24:38;;;;;;;79.68;34.88;;;;;;;;;;4980158;28;20046;-65
2021/03/02 07:27:06;;;;;;;76.22;32.47;;;;;;;;;;4986822;28;20021;-65
2021/03/02 07:29:31;;;;;;;81.80;33.00;;;;;;;;;;4984052;28;20029;-65
2021/03/02 07:31:58;;;;;;;86.65;34.10;;;;;;;;;;4982102;28;20603;-66
2021/03/02 07:34:23;;;;;;;86.85;34.92;;;;;;;;;;4977599;28;20035;-65
2021/03/02 07:36:48;;;;;;;79.72;34.25;;;;;;;;;;4977449;28;20022;-65
2021/03/02 07:39:16;;;;;;;82.97;32.95;;;;;;;;;;4977758;28;20460;-65
2021/03/02 07:41:42;;;;;;;83.05;35.60;;;;;;;;;;4980782;28;20014;-65
2021/03/02 07:44:07;;;;;;;81.55;33.58;;;;;;;;;;4996634;28;20506;-65
2021/03/02 07:46:42;;;;;;;75.82;35.15;;;;;;;;;;4996796;28;20042;-65
2021/03/02 07:49:22;;;;;;;91.97;35.55;;;;;;;;;;4989008;28;20445;-65
2021/03/02 07:51:56;;;;;;;72.35;30.70;;;;;;;;;;4978646;28;20042;-65
2021/03/02 07:54:22;;;;;;;82.60;33.33;;;;;;;;;;4995659;28;20042;-65
2021/03/02 07:56:48;;;;;;;79.28;32.38;;;;;;;;;;4996146;28;20130;-65
2021/03/02 07:59:13;;;;;;;75.85;32.67;;;;;;;;;;4986312;28;20043;-65
2021/03/02 08:01:38;;;;;;;81.50;33.08;;;;;;;;;;4995317;28;20014;-65
2021/03/02 08:04:16;;;;;;;78.68;34.65;;;;;;;;;;4995794;28;20546;-65
2021/03/02 08:06:41;;;;;;;77.10;31.13;;;;;;;;;;4996361;28;20085;-65
2021/03/02 08:09:22;;;;;;;83.80;32.13;;;;;;;;;;4996440;28;20446;-65
2021/03/02 08:11:47;;;;;;;81.00;33.00;;;;;;;;;;4996240;28;20050;-66
2021/03/02 08:14:16;;;;;;;82.68;32.45;;;;;;;;;;4996069;28;20434;-65
2021/03/02 08:16:53;;;;;;;73.40;32.33;;;;;;;;;;4996062;28;20030;-65
2021/03/02 08:19:33;;;;;;;74.63;30.88;;;;;;;;;;4996139;28;20034;-65
2021/03/02 08:21:58;;;;;;;78.85;32.33;;;;;;;;;;4995236;28;20475;-65
2021/03/02 08:24:42;;;;;;;71.90;31.90;;;;;;;;;;4996142;28;20030;-65
2021/03/02 08:27:08;;;;;;;71.80;29.27;;;;;;;;;;4976484;28;20094;-65
2021/03/02 08:29:33;;;;;;;71.13;26.90;;;;;;;;;;4976639;28;20026;-65
2021/03/02 08:31:58;;;;;;;70.50;29.20;;;;;;;;;;4976219;28;20372;-65
2021/03/02 08:34:24;;;;;;;78.97;33.80;;;;;;;;;;4976194;28;20038;-65
2021/03/02 08:36:52;;;;;;;80.03;33.47;;;;;;;;;;4976406;28;20057;-65
2021/03/02 08:39:18;;;;;;;74.05;31.65;;;;;;;;;;4977955;28;20134;-65
2021/03/02 08:41:45;;;;;;;77.53;30.83;;;;;;;;;;4986662;28;20486;-65
2021/03/02 08:44:17;;;;;;;80.13;33.33;;;;;;;;;;4979101;28;20475;-65
2021/03/02 08:46:43;;;;;;;75.43;33.20;;;;;;;;;;4992382;28;20058;-65
2021/03/02 08:49:09;;;;;;;79.65;33.65;;;;;;;;;;4992495;28;20057;-65
2021/03/02 08:51:35;;;;;;;72.88;29.65;;;;;;;;;;4992512;28;20037;-65
2021/03/02 08:54:00;;;;;;;77.45;31.52;;;;;;;;;;4990012;28;20030;-66
2021/03/02 08:56:25;;;;;;;76.18;32.72;;;;;;;;;;4993013;28;20097;-65
2021/03/02 08:58:52;;;;;;;71.13;29.02;;;;;;;;;;4989435;28;20030;-65
2021/03/02 09:01:23;;;;;;;72.32;30.92;;;;;;;;;;4992372;28;20072;-65
2021/03/02 09:03:50;;;;;;;66.45;28.77;;;;;;;;;;4987870;28;20026;-65
2021/03/02 09:06:17;;;;;;;72.38;29.80;;;;;;;;;;4992311;28;20038;-65
2021/03/02 09:08:46;;;;;;;75.25;29.63;;;;;;;;;;4991912;28;20528;-65
2021/03/02 09:11:12;;;;;;;72.00;30.05;;;;;;;;;;4991996;28;20014;-65
2021/03/02 09:13:39;;;;;;;76.78;31.50;;;;;;;;;;4991809;28;20513;-66
2021/03/02 09:16:23;;;;;;;70.68;31.25;;;;;;;;;;4992231;28;20034;-66
2021/03/02 09:18:57;;;;;;;78.03;32.83;;;;;;;;;;4991834;28;20039;-65
2021/03/02 09:21:22;;;;;;;70.18;31.20;;;;;;;;;;4989497;28;20807;-65
2021/03/02 09:23:48;;;;;;;79.55;30.80;;;;;;;;;;4973087;28;20494;-65
2021/03/02 09:26:18;;;;;;;77.82;32.83;;;;;;;;;;4971152;28;20392;-65
2021/03/02 09:28:43;;;;;;;85.00;32.35;;;;;;;;;;4972618;28;20128;-65
2021/03/02 09:31:08;;;;;;;70.97;29.98;;;;;;;;;;4968018;28;20062;-65
2021/03/02 09:33:33;;;;;;;66.55;27.52;;;;;;;;;;4970704;28;20472;-65
2021/03/02 09:35:59;;;;;;;77.72;33.53;;;;;;;;;;4972056;28;20061;-65
2021/03/02 09:38:27;;;;;;;75.93;30.13;;;;;;;;;;4972657;28;20559;-65
2021/03/02 09:40:53;;;;;;;67.18;28.95;;;;;;;;;;4988382;28;20020;-66
2021/03/02 09:43:18;;;;;;;71.90;29.02;;;;;;;;;;4990532;28;20466;-65
2021/03/02 09:45:56;;;;;;;72.60;28.70;;;;;;;;;;4984899;28;20046;-66
2021/03/02 09:48:21;;;;;;;64.93;28.85;;;;;;;;;;4991108;28;20080;-65
2021/03/02 09:50:46;;;;;;;72.30;29.38;;;;;;;;;;4990996;28;20038;-65
2021/03/02 09:53:15;;;;;;;72.63;28.75;;;;;;;;;;4990923;28;20022;-66
2021/03/02 09:55:42;;;;;;;63.15;28.23;;;;;;;;;;4988905;28;20058;-66
2021/03/02 09:58:14;;;;;;;68.43;30.50;;;;;;;;;;4991266;28;20038;-65
2021/03/02 10:00:45;;;;;;;67.95;28.20;;;;;;;;;;4990874;28;20018;-65
2021/03/02 10:03:19;;;;;;;68.75;29.30;;;;;;;;;;4991384;28;20030;-65
2021/03/02 10:05:46;;;;;;;69.00;28.08;;;;;;;;;;4990600;28;20120;-66
2021/03/02 10:08:24;;;;;;;70.30;29.58;;;;;;;;;;4971857;28;20374;-65
2021/03/02 10:10:50;;;;;;;63.75;27.27;;;;;;;;;;4971394;28;20109;-65
2021/03/02 10:13:29;;;;;;;66.95;28.35;;;;;;;;;;4971701;28;20031;-65
2021/03/02 10:16:12;;;;;;;67.90;30.15;;;;;;;;;;4982522;28;20125;-65
2021/03/02 10:18:56;;;;;;;65.22;28.17;;;;;;;;;;4990633;28;20037;-65
2021/03/02 10:21:23;;;;;;;64.80;27.70;;;;;;;;;;4989932;28;20490;-65
2021/03/02 10:23:50;;;;;;;66.03;28.02;;;;;;;;;;4990542;28;20545;-67
2021/03/02 10:26:20;;;;;;;68.47;29.27;;;;;;;;;;4990080;28;20033;-65
2021/03/02 10:28:45;;;;;;;70.90;30.52;;;;;;;;;;4990960;28;20022;-65
2021/03/02 10:31:11;;;;;;;67.57;31.15;;;;;;;;;;4985923;28;20120;-66
2021/03/02 10:33:36;;;;;;;64.72;28.00;;;;;;;;;;4990353;28;20078;-66
2021/03/02 10:36:01;;;;;;;63.75;27.88;;;;;;;;;;4990074;28;20019;-65
2021/03/02 10:38:27;;;;;;;59.78;27.17;;;;;;;;;;4990131;28;20076;-66
2021/03/02 10:40:52;;;;;;;65.88;28.85;;;;;;;;;;4986698;28;20065;-65
2021/03/02 10:43:17;;;;;;;74.25;28.42;;;;;;;;;;4973237;28;20025;-66
2021/03/02 10:45:43;;;;;;;67.13;29.55;;;;;;;;;;4986045;28;20058;-66
2021/03/02 10:48:08;;;;;;;64.43;28.10;;;;;;;;;;4986458;28;20038;-65
2021/03/02 10:50:33;;;;;;;67.40;29.20;;;;;;;;;;4986405;28;20029;-66
2021/03/02 10:52:59;;;;;;;61.90;28.05;;;;;;;;;;4986584;28;20026;-66
2021/03/02 10:55:24;;;;;;;68.63;29.52;;;;;;;;;;4986633;28;20069;-65
2021/03/02 10:57:49;;;;;;;58.33;28.13;;;;;;;;;;4997169;28;20746;-66
2021/03/02 11:00:16;;;;;;;63.47;27.48;;;;;;;;;;4984785;28;20038;-66
2021/03/02 11:02:41;;;;;;;67.05;28.38;;;;;;;;;;4986473;28;20514;-65
2021/03/02 11:05:07;;;;;;;63.42;28.65;;;;;;;;;;4986549;28;20014;-66
2021/03/02 11:07:32;;;;;;;61.35;27.80;;;;;;;;;;4994483;28;20064;-65
2021/03/02 11:09:58;;;;;;;59.60;28.52;;;;;;;;;;4989117;28;20425;-68
2021/03/02 11:12:23;;;;;;;62.33;28.25;;;;;;;;;;4984601;28;20023;-66
2021/03/02 11:14:48;;;;;;;61.75;27.92;;;;;;;;;;4977347;28;20049;-66
2021/03/02 11:17:14;;;;;;;65.30;28.55;;;;;;;;;;4982220;28;20804;-67
2021/03/02 11:19:39;;;;;;;68.60;28.08;;;;;;;;;;4986083;28;20026;-67
2021/03/02 11:22:04;;;;;;;64.03;28.13;;;;;;;;;;4998577;28;20423;-67
2021/03/02 11:24:29;;;;;;;60.45;26.42;;;;;;;;;;5006858;28;20116;-67
2021/03/02 11:26:55;;;;;;;59.00;26.98;;;;;;;;;;4995681;28;20443;-66
2021/03/02 11:29:20;;;;;;;58.35;26.80;;;;;;;;;;4992514;28;20157;-66
2021/03/02 11:31:45;;;;;;;56.97;25.50;;;;;;;;;;4995598;28;20044;-66
2021/03/02 11:34:11;;;;;;;61.03;26.02;;;;;;;;;;4999734;28;20029;-66
2021/03/02 11:36:36;;;;;;;60.97;27.70;;;;;;;;;;4989138;28;20510;-66
2021/03/02 11:39:02;;;;;;;59.58;27.20;;;;;;;;;;4989998;28;20041;-66
2021/03/02 11:41:27;;;;;;;63.65;28.38;;;;;;;;;;5005642;28;20014;-66
2021/03/02 11:43:52;;;;;;;58.53;27.70;;;;;;;;;;5004847;28;20801;-66
2021/03/02 11:46:18;;;;;;;60.42;26.95;;;;;;;;;;4990927;28;20040;-66
2021/03/02 11:48:43;;;;;;;59.72;27.13;;;;;;;;;;4985992;28;20041;-66
2021/03/02 11:51:08;;;;;;;63.28;27.30;;;;;;;;;;4984071;28;20038;-66
2021/03/02 11:53:34;;;;;;;52.17;22.90;;;;;;;;;;4994719;28;20042;-66
2021/03/02 11:55:59;;;;;;;66.78;28.65;;;;;;;;;;4995075;28;20036;-66
2021/03/02 11:58:24;;;;;;;61.45;26.73;;;;;;;;;;5004775;28;20032;-66
2021/03/02 12:00:50;;;;;;;64.50;28.20;;;;;;;;;;4992603;28;20142;-65
2021/03/02 12:03:15;;;;;;;57.97;26.20;;;;;;;;;;5003359;28;20421;-66
2021/03/02 12:05:40;;;;;;;66.38;27.15;;;;;;;;;;4993580;28;20042;-66
2021/03/02 12:08:06;;;;;;;62.13;27.77;;;;;;;;;;4989138;28;20042;-66
2021/03/02 12:10:31;;;;;;;59.72;28.55;;;;;;;;;;5005073;28;20187;-66
2021/03/02 12:12:56;;;;;;;64.43;27.88;;;;;;;;;;4976609;28;20030;-66
2021/03/02 12:15:22;;;;;;;64.00;27.00;;;;;;;;;;5002321;28;20042;-66
2021/03/02 12:17:47;;;;;;;56.65;26.65;;;;;;;;;;4993710;28;20084;-66
2021/03/02 12:20:12;;;;;;;67.25;26.95;;;;;;;;;;5002762;28;20501;-67
2021/03/02 12:22:38;;;;;;;59.50;25.67;;;;;;;;;;4991916;28;20045;-67
2021/03/02 12:25:04;;;;;;;59.80;27.30;;;;;;;;;;5003645;28;20026;-66
2021/03/02 12:27:30;;;;;;;64.40;24.92;;;;;;;;;;4996565;28;20053;-66
2021/03/02 12:29:55;;;;;;;59.88;25.20;;;;;;;;;;4997357;28;20475;-66
2021/03/02 12:32:20;;;;;;;57.58;24.15;;;;;;;;;;5003098;28;20033;-67
2021/03/02 12:34:46;;;;;;;60.88;25.58;;;;;;;;;;4988766;28;20057;-67
2021/03/02 12:37:11;;;;;;;59.55;26.55;;;;;;;;;;4988929;28;20137;-66
2021/03/02 12:39:36;;;;;;;63.75;26.95;;;;;;;;;;4983244;28;20415;-66
2021/03/02 12:42:01;;;;;;;59.25;26.20;;;;;;;;;;4992492;28;20030;-66
2021/03/02 12:44:27;;;;;;;57.08;25.25;;;;;;;;;;4988276;28;20058;-66
2021/03/02 12:46:52;;;;;;;58.10;24.52;;;;;;;;;;4993635;28;20025;-66
2021/03/02 12:49:17;;;;;;;58.83;24.92;;;;;;;;;;4994674;28;20114;-66
2021/03/02 12:51:43;;;;;;;52.20;23.55;;;;;;;;;;4998410;28;20033;-66
2021/03/02 12:54:08;;;;;;;61.05;25.63;;;;;;;;;;4986469;28;20467;-66
2021/03/02 12:56:34;;;;;;;56.92;24.77;;;;;;;;;;5004810;28;20029;-67
2021/03/02 12:58:59;;;;;;;49.00;21.77;;;;;;;;;;5007844;28;20030;-66
2021/03/02 13:01:24;;;;;;;51.75;23.05;;;;;;;;;;5008024;28;20030;-67
2021/03/02 13:03:52;;;;;;;51.03;23.23;;;;;;;;;;4999049;28;20372;-66
2021/03/02 13:06:18;;;;;;;50.70;23.45;;;;;;;;;;4993406;28;20049;-67
2021/03/02 13:08:45;;;;;;;57.53;24.83;;;;;;;;;;5004293;28;20045;-65
2021/03/02 13:11:12;;;;;;;58.28;25.45;;;;;;;;;;4993070;28;20025;-67
2021/03/02 13:13:38;;;;;;;51.60;23.90;;;;;;;;;;4998351;28;20050;-66
2021/03/02 13:16:04;;;;;;;56.47;25.13;;;;;;;;;;4980621;28;20780;-66
2021/03/02 13:18:29;;;;;;;54.10;23.63;;;;;;;;;;4981201;28;20035;-66
2021/03/02 13:20:58;;;;;;;53.50;25.92;;;;;;;;;;5003645;28;20045;-66
2021/03/02 13:23:24;;;;;;;58.78;26.38;;;;;;;;;;4986504;28;20418;-67
2021/03/02 13:25:50;;;;;;;64.13;26.38;;;;;;;;;;4982979;28;20117;-67
2021/03/02 13:28:16;;;;;;;63.38;25.42;;;;;;;;;;5001558;28;20133;-68
2021/03/02 13:30:41;;;;;;;53.20;23.15;;;;;;;;;;4976376;28;20018;-66
2021/03/02 13:33:11;;;;;;;56.75;24.38;;;;;;;;;;4990352;28;20486;-67
2021/03/02 13:35:37;;;;;;;56.80;25.35;;;;;;;;;;4996711;28;20045;-68
2021/03/02 13:38:05;;;;;;;54.97;23.88;;;;;;;;;;4982223;28;20027;-66
2021/03/02 13:40:30;;;;;;;59.08;26.02;;;;;;;;;;4983220;28;20026;-67
2021/03/02 13:42:57;;;;;;;57.30;24.13;;;;;;;;;;4984962;28;20120;-66
2021/03/02 13:45:24;;;;;;;54.90;24.55;;;;;;;;;;4988599;28;20073;-66
2021/03/02 13:47:51;;;;;;;60.20;25.67;;;;;;;;;;4987123;28;20042;-66
2021/03/02 13:50:17;;;;;;;57.92;26.35;;;;;;;;;;4986907;28;20064;-66
2021/03/02 13:52:42;;;;;;;54.55;23.23;;;;;;;;;;4986652;28;20456;-66
2021/03/02 13:55:08;;;;;;;53.25;24.65;;;;;;;;;;4992327;28;20762;-66
2021/03/02 13:57:35;;;;;;;57.55;25.30;;;;;;;;;;4998766;28;20046;-66
2021/03/02 14:00:00;;;;;;;61.42;25.83;;;;;;;;;;4999157;28;20022;-67
2021/03/02 14:02:26;;;;;;;56.25;25.02;;;;;;;;;;4985816;28;20034;-66
2021/03/02 14:04:52;;;;;;;66.10;27.08;;;;;;;;;;4986741;28;20034;-66
2021/03/02 14:07:18;;;;;;;59.65;26.08;;;;;;;;;;4987593;28;20030;-66
2021/03/02 14:09:45;;;;;;;61.50;27.30;;;;;;;;;;4997404;28;20088;-66
2021/03/02 14:12:11;;;;;;;58.22;25.15;;;;;;;;;;4993428;28;20049;-66
2021/03/02 14:14:38;;;;;;;62.92;28.42;;;;;;;;;;5002021;28;20084;-65